Time;durP1;ratioP1;P1;durP2;ratioP2;P2;SDS_P1;SDS_P2;PMS_P1;PMS_P2;Temp;Humidity;BMP_temperature;BMP_pressure;BME280_temperature;BME280_humidity;BME280_pressure;Samples;Min_cycle;Max_cycle;Signal;HPM_P1;HPM_P2
2022/01/03 00:01:32;;;;;;;52.25;15.00;;;;;;;6.13;100.00;99510.03;4953691;28;20031;-77
2022/01/03 00:03:58;;;;;;;56.58;14.02;;;;;;;6.12;100.00;99506.50;4935348;28;20039;-77
2022/01/03 00:06:23;;;;;;;62.40;14.18;;;;;;;6.14;100.00;99512.47;4953557;28;20488;-77
2022/01/03 00:08:49;;;;;;;56.53;13.63;;;;;;;6.14;100.00;99507.06;4955402;28;20468;-77
2022/01/03 00:11:16;;;;;;;54.40;11.65;;;;;;;6.14;100.00;99503.53;4953003;28;20038;-77
2022/01/03 00:13:45;;;;;;;39.65;11.98;;;;;;;6.13;100.00;99508.13;4954407;28;20042;-77
2022/01/03 00:16:11;;;;;;;38.38;9.80;;;;;;;6.13;100.00;99500.00;4930757;28;20066;-77
2022/01/03 00:18:37;;;;;;;40.72;9.57;;;;;;;6.14;100.00;99506.25;4955311;28;20557;-77
2022/01/03 00:21:02;;;;;;;38.47;8.90;;;;;;;6.14;100.00;99504.34;4936531;28;20059;-77
2022/01/03 00:23:30;;;;;;;40.08;9.90;;;;;;;6.12;100.00;99508.41;4936509;29;20045;-78
2022/01/03 00:26:00;;;;;;;46.97;9.43;;;;;;;6.12;100.00;99500.28;4938062;29;20114;-78
2022/01/03 00:28:34;;;;;;;55.90;9.80;;;;;;;6.11;100.00;99491.38;4953524;28;20098;-78
2022/01/03 00:30:59;;;;;;;44.47;9.32;;;;;;;6.14;100.00;99496.22;4954690;28;20401;-78
2022/01/03 00:33:25;;;;;;;42.17;9.63;;;;;;;6.16;100.00;99490.53;4952036;28;20027;-77
2022/01/03 00:35:53;;;;;;;35.63;7.22;;;;;;;6.14;100.00;99490.00;4948053;28;20082;-78
2022/01/03 00:38:19;;;;;;;40.28;7.95;;;;;;;6.13;100.00;99482.97;4952980;28;20032;-78
2022/01/03 00:40:44;;;;;;;51.28;9.18;;;;;;;6.13;100.00;99488.38;4952570;28;20571;-77
2022/01/03 00:43:10;;;;;;;40.03;7.72;;;;;;;6.13;100.00;99485.66;4921589;28;20027;-77
2022/01/03 00:45:35;;;;;;;49.88;8.40;;;;;;;6.11;100.00;99483.25;4936676;29;20468;-78
2022/01/03 00:48:04;;;;;;;36.15;8.18;;;;;;;6.13;100.00;99488.38;4954313;28;20507;-78
2022/01/03 00:50:30;;;;;;;41.58;8.35;;;;;;;6.12;100.00;99482.16;4954097;28;20511;-78
2022/01/03 00:52:55;;;;;;;32.22;8.68;;;;;;;6.11;100.00;99480.56;4946585;28;20027;-78
2022/01/03 00:55:20;;;;;;;52.17;9.45;;;;;;;6.12;100.00;99473.25;4953586;28;20035;-77
2022/01/03 00:57:52;;;;;;;35.50;7.55;;;;;;;6.10;100.00;99468.09;4953394;28;20035;-78
2022/01/03 01:00:17;;;;;;;37.33;8.00;;;;;;;6.06;100.00;99456.22;4952950;28;20504;-78
2022/01/03 01:02:56;;;;;;;30.83;7.13;;;;;;;6.04;100.00;99458.38;4937432;28;20031;-77
2022/01/03 01:05:22;;;;;;;45.03;7.75;;;;;;;6.01;100.00;99456.22;4954290;28;20051;-78
2022/01/03 01:07:47;;;;;;;49.97;8.10;;;;;;;5.98;100.00;99454.09;4922517;28;20497;-78
2022/01/03 01:10:13;;;;;;;29.08;6.93;;;;;;;5.98;100.00;99459.50;4937397;28;20034;-77
2022/01/03 01:12:38;;;;;;;47.42;8.80;;;;;;;5.98;100.00;99462.19;4956003;28;20035;-78
2022/01/03 01:15:04;;;;;;;45.45;7.07;;;;;;;5.98;100.00;99459.50;4938243;28;20027;-78
2022/01/03 01:17:29;;;;;;;42.47;7.30;;;;;;;5.96;100.00;99454.34;4953235;28;20407;-77
2022/01/03 01:19:56;;;;;;;40.83;6.85;;;;;;;5.94;100.00;99453.81;4951710;28;20028;-78
2022/01/03 01:22:22;;;;;;;35.80;8.13;;;;;;;5.91;100.00;99448.13;4936799;28;20046;-77
2022/01/03 01:24:59;;;;;;;45.42;7.80;;;;;;;5.90;100.00;99446.50;4921096;28;20031;-78
2022/01/03 01:30:11;;;;;;;39.15;6.07;;;;;;;5.97;100.00;99447.03;4953391;28;20098;-77
2022/01/03 01:32:39;;;;;;;45.75;8.95;;;;;;;6.00;100.00;99438.38;4954872;28;20030;-78
2022/01/03 01:35:05;;;;;;;47.08;8.88;;;;;;;6.05;100.00;99441.06;4922268;29;20027;-77
2022/01/03 01:37:30;;;;;;;43.78;7.70;;;;;;;6.09;100.00;99450.25;4918782;29;20623;-78
2022/01/03 01:39:57;;;;;;;29.45;6.63;;;;;;;6.11;100.00;99437.25;4909481;29;20520;-78
2022/01/03 01:42:22;;;;;;;43.47;8.13;;;;;;;6.13;100.00;99428.84;4919701;29;20032;-78
2022/01/03 01:44:50;;;;;;;30.70;7.47;;;;;;;6.10;100.00;99434.81;4938041;29;20098;-78
2022/01/03 01:47:15;;;;;;;29.08;5.70;;;;;;;6.02;100.00;99432.69;4933102;29;20030;-77
2022/01/03 01:49:45;;;;;;;44.05;8.25;;;;;;;5.96;100.00;99432.72;4954596;28;20031;-77
2022/01/03 01:52:18;;;;;;;41.67;8.88;;;;;;;5.93;100.00;99429.72;4921715;29;20412;-77
2022/01/03 01:54:51;;;;;;;37.63;7.43;;;;;;;5.88;100.00;99427.03;4939044;29;20496;-77
2022/01/03 01:57:17;;;;;;;;;;;;;;;5.86;100.00;99418.38;4955860;28;20038;-77
2022/01/03 01:59:48;;;;;;;41.67;8.60;;;;;;;5.84;100.00;99431.34;4952099;28;19973;-77
2022/01/03 02:02:15;;;;;;;44.73;8.27;;;;;;;5.81;100.00;99432.75;4947534;28;20027;-77
2022/01/03 02:04:47;;;;;;;34.15;7.97;;;;;;;5.81;100.00;99431.91;4912863;29;20540;-77
2022/01/03 02:07:37;;;;;;;50.17;9.57;;;;;;;5.82;100.00;99431.66;4954678;28;20113;-77
2022/01/03 02:10:10;;;;;;;40.22;8.25;;;;;;;5.83;100.00;99424.34;4943299;28;20564;-77
2022/01/03 02:12:49;;;;;;;46.50;8.20;;;;;;;5.81;100.00;99423.81;4953797;28;20031;-77
2022/01/03 02:15:16;;;;;;;47.08;8.15;;;;;;;5.78;100.00;99408.94;4937549;29;20480;-77
2022/01/03 02:17:44;;;;;;;37.80;7.95;;;;;;;5.75;100.00;99423.81;4953623;28;20114;-77
2022/01/03 02:20:25;;;;;;;46.72;8.80;;;;;;;5.72;100.00;99418.16;4921395;29;20027;-77
2022/01/03 02:22:50;;;;;;;33.67;7.82;;;;;;;5.71;100.00;99417.34;4938671;28;20499;-77
2022/01/03 02:25:18;;;;;;;56.20;8.35;;;;;;;5.70;100.00;99415.75;4953504;28;20029;-77
2022/01/03 02:27:44;;;;;;;50.28;7.88;;;;;;;5.71;100.00;99411.94;4952591;28;20082;-78
2022/01/03 02:30:11;;;;;;;37.55;7.78;;;;;;;5.71;100.00;99405.72;4921825;29;20476;-78
2022/01/03 02:32:37;;;;;;;31.80;6.22;;;;;;;5.71;100.00;99411.94;4953795;28;20074;-77
2022/01/03 02:35:03;;;;;;;24.48;5.68;;;;;;;5.78;100.00;99414.34;4936393;29;20019;-77
2022/01/03 02:37:28;;;;;;;40.50;6.70;;;;;;;5.83;100.00;99408.13;4954303;28;20070;-78
2022/01/03 02:39:54;;;;;;;45.47;6.07;;;;;;;5.83;100.00;99408.13;4933116;28;20042;-77
2022/01/03 02:42:23;;;;;;;49.03;7.40;;;;;;;5.84;100.00;99398.91;4937348;28;20027;-77
2022/01/03 02:44:58;;;;;;;50.45;8.52;;;;;;;5.83;100.00;99402.72;4935325;29;20035;-77
2022/01/03 02:47:24;;;;;;;41.88;7.25;;;;;;;5.84;100.00;99407.84;4937139;29;20029;-78
2022/01/03 02:49:49;;;;;;;30.73;7.22;;;;;;;5.87;100.00;99409.19;4953493;28;20039;-78
2022/01/03 02:52:14;;;;;;;38.35;7.90;;;;;;;5.88;100.00;99405.41;4952897;29;20030;-78
2022/01/03 02:54:40;;;;;;;53.50;8.70;;;;;;;5.89;100.00;99397.03;4950434;28;20035;-78
2022/01/03 02:57:05;;;;;;;50.70;9.07;;;;;;;5.92;100.00;99401.03;4952671;28;20026;-78
2022/01/03 02:59:31;;;;;;;40.70;7.30;;;;;;;5.94;100.00;99396.19;4951364;28;20121;-78
2022/01/03 03:01:56;;;;;;;41.17;7.72;;;;;;;5.96;100.00;99397.53;4952483;28;20380;-78
2022/01/03 03:04:21;;;;;;;32.65;6.82;;;;;;;5.99;100.00;99390.78;4951781;28;20031;-77
2022/01/03 03:06:48;;;;;;;39.60;7.50;;;;;;;6.00;100.00;99392.38;4935917;29;20143;-78
2022/01/03 03:09:14;;;;;;;45.88;6.75;;;;;;;6.01;100.00;99383.19;4952177;28;20112;-78
2022/01/03 03:11:40;;;;;;;29.42;6.03;;;;;;;6.01;100.00;99385.91;4920235;29;20481;-78
2022/01/03 03:14:05;;;;;;;48.08;6.85;;;;;;;6.01;100.00;99388.59;4952346;28;20039;-77
2022/01/03 03:16:31;;;;;;;34.28;6.93;;;;;;;6.02;100.00;99390.22;4936385;29;20024;-77
2022/01/03 03:18:56;;;;;;;31.45;5.72;;;;;;;6.02;100.00;99376.69;4947576;28;20397;-78
2022/01/03 03:21:21;;;;;;;40.38;6.38;;;;;;;6.02;100.00;99376.69;4955002;28;20034;-77
2022/01/03 03:23:47;;;;;;;26.77;5.18;;;;;;;5.99;100.00;99379.94;4952110;28;20051;-77
2022/01/03 03:26:12;;;;;;;39.67;6.38;;;;;;;5.96;100.00;99375.91;4951656;28;21586;-78
2022/01/03 03:28:38;;;;;;;37.38;5.70;;;;;;;5.95;100.00;99368.09;4951034;28;20042;-79
2022/01/03 03:31:03;;;;;;;33.33;5.78;;;;;;;5.92;100.00;99382.94;4937809;28;20027;-78
2022/01/03 03:33:29;;;;;;;31.55;5.43;;;;;;;5.92;100.00;99384.81;4956115;28;20082;-78
2022/01/03 03:35:55;;;;;;;38.08;5.60;;;;;;;5.94;100.00;99377.25;4956367;28;20027;-78
2022/01/03 03:38:23;;;;;;;38.38;7.70;;;;;;;5.95;100.00;99378.91;4955126;28;20035;-79
2022/01/03 03:40:49;;;;;;;37.58;5.97;;;;;;;5.92;100.00;99377.53;4921606;28;20063;-78
2022/01/03 03:43:15;;;;;;;39.10;6.68;;;;;;;5.90;100.00;99371.59;4955133;28;20027;-78
2022/01/03 03:45:40;;;;;;;33.83;5.55;;;;;;;5.91;100.00;99369.69;4956531;28;20027;-78
2022/01/03 03:48:07;;;;;;;36.25;6.00;;;;;;;5.90;100.00;99373.47;4955840;28;20472;-78
2022/01/03 03:50:32;;;;;;;37.28;6.97;;;;;;;5.93;100.00;99375.63;4938355;29;20086;-78
2022/01/03 03:52:57;;;;;;;50.38;7.43;;;;;;;5.96;100.00;99369.69;4956234;28;20027;-78
2022/01/03 03:55:24;;;;;;;40.35;6.78;;;;;;;5.99;100.00;99374.53;4955176;28;20384;-78
2022/01/03 03:57:50;;;;;;;42.20;6.43;;;;;;;6.00;100.00;99368.03;4916431;28;1147760;-78
2022/01/03 04:00:17;;;;;;;33.80;5.32;;;;;;;6.00;100.00;99370.75;4938734;29;20032;-78
2022/01/03 04:02:43;;;;;;;38.40;7.97;;;;;;;6.00;100.00;99365.31;4928799;29;20083;-77
2022/01/03 04:05:08;;;;;;;40.15;7.50;;;;;;;5.99;100.00;99358.31;4921597;29;20040;-77
2022/01/03 04:07:34;;;;;;;41.88;8.70;;;;;;;5.99;100.00;99355.59;4938029;29;20087;-77
2022/01/03 04:10:05;;;;;;;36.20;6.85;;;;;;;6.00;100.00;99357.22;4940953;29;20055;-77
2022/01/03 04:12:31;;;;;;;41.10;6.47;;;;;;;5.99;100.00;99352.91;4939305;29;20054;-77
2022/01/03 04:14:56;;;;;;;44.78;6.85;;;;;;;5.99;100.00;99350.19;4922665;29;20485;-77
2022/01/03 04:17:21;;;;;;;34.35;4.88;;;;;;;5.97;100.00;99345.09;4937740;29;20034;-77
2022/01/03 04:19:47;;;;;;;37.60;6.40;;;;;;;5.96;100.00;99343.44;4937680;29;20043;-77
2022/01/03 04:22:12;;;;;;;42.15;7.13;;;;;;;5.96;100.00;99342.66;4938439;29;20477;-77
2022/01/03 04:24:38;;;;;;;39.65;7.28;;;;;;;5.96;100.00;99338.03;4940807;29;20377;-77
2022/01/03 04:27:03;;;;;;;40.17;6.20;;;;;;;5.97;100.00;99344.25;4937339;29;20024;-77
2022/01/03 04:29:29;;;;;;;37.08;6.07;;;;;;;5.98;100.00;99343.19;4936121;29;20032;-77
2022/01/03 04:31:54;;;;;;;42.08;6.78;;;;;;;5.96;100.00;99329.91;4936527;29;20031;-77
2022/01/03 04:34:20;;;;;;;43.97;5.70;;;;;;;5.97;100.00;99341.53;4920649;29;20027;-77
2022/01/03 04:36:45;;;;;;;36.45;6.80;;;;;;;5.98;100.00;99343.97;4924213;29;20039;-77
2022/01/03 04:39:10;;;;;;;43.92;6.93;;;;;;;5.96;100.00;99348.06;4936743;29;20027;-76
2022/01/03 04:41:36;;;;;;;43.75;8.70;;;;;;;5.94;100.00;99336.69;4944046;29;20031;-77
2022/01/03 04:44:05;;;;;;;39.33;7.20;;;;;;;5.92;100.00;99325.31;4935305;29;20027;-77
2022/01/03 04:46:34;;;;;;;27.75;6.95;;;;;;;5.92;100.00;99317.19;4937091;29;20082;-77
2022/01/03 04:49:00;;;;;;;33.08;5.65;;;;;;;5.95;100.00;99330.22;4928836;29;20066;-77
2022/01/03 04:51:25;;;;;;;42.63;8.18;;;;;;;5.95;100.00;99324.81;4940350;29;20042;-77
2022/01/03 04:53:50;;;;;;;44.47;8.40;;;;;;;5.97;100.00;99314.50;4905916;29;20052;-77
2022/01/03 04:56:18;;;;;;;31.05;6.13;;;;;;;5.98;100.00;99310.72;4941765;29;20342;-79
2022/01/03 04:58:44;;;;;;;35.35;7.80;;;;;;;5.98;100.00;99299.91;4942087;28;20047;-77
2022/01/03 05:01:09;;;;;;;37.92;7.68;;;;;;;5.98;100.00;99302.59;4955158;28;20481;-77
2022/01/03 05:03:35;;;;;;;36.88;7.05;;;;;;;5.98;100.00;99303.41;4954938;28;20069;-76
2022/01/03 05:06:01;;;;;;;41.58;7.20;;;;;;;5.97;100.00;99296.41;4955858;28;20027;-77
2022/01/03 05:08:29;;;;;;;43.78;8.95;;;;;;;5.98;100.00;99308.00;4938654;29;20026;-77
2022/01/03 05:10:55;;;;;;;37.15;7.63;;;;;;;5.95;100.00;99298.56;4953957;28;20515;-77
2022/01/03 05:13:20;;;;;;;35.45;7.53;;;;;;;5.95;100.00;99305.88;4955884;28;20055;-77
2022/01/03 05:15:47;;;;;;;46.97;8.50;;;;;;;5.92;100.00;99285.56;4956307;28;20023;-77
2022/01/03 05:18:13;;;;;;;44.95;6.97;;;;;;;5.89;100.00;99283.44;4954225;28;20488;-77
2022/01/03 05:20:38;;;;;;;51.80;9.73;;;;;;;5.87;100.00;99301.03;4953962;28;20037;-76
2022/01/03 05:23:04;;;;;;;52.45;8.23;;;;;;;5.84;100.00;99288.03;4955877;28;20027;-77
2022/01/03 05:25:30;;;;;;;54.40;8.00;;;;;;;5.84;100.00;99285.31;4954766;28;20357;-76
2022/01/03 05:27:56;;;;;;;56.25;9.63;;;;;;;5.84;100.00;99296.16;4955202;28;20078;-77
2022/01/03 05:30:22;;;;;;;46.42;7.97;;;;;;;5.81;100.00;99294.84;4937702;28;20043;-77
2022/01/03 05:32:47;;;;;;;53.38;8.43;;;;;;;5.81;100.00;99297.53;4940294;28;20049;-77
2022/01/03 05:35:12;;;;;;;38.25;6.82;;;;;;;5.82;100.00;99284.81;4955291;28;20024;-77
2022/01/03 05:37:38;;;;;;;41.22;7.32;;;;;;;5.82;100.00;99293.72;4955405;28;20042;-77
2022/01/03 05:40:05;;;;;;;45.20;6.72;;;;;;;5.85;100.00;99286.97;4954245;28;20042;-78
2022/01/03 05:42:30;;;;;;;43.50;7.70;;;;;;;5.86;100.00;99270.44;4938724;29;20039;-77
2022/01/03 05:44:55;;;;;;;50.60;8.05;;;;;;;5.86;100.00;99267.72;4936873;28;20034;-77
2022/01/03 05:47:23;;;;;;;48.15;9.27;;;;;;;5.86;100.00;99262.31;4941858;29;20023;-77
2022/01/03 05:49:49;;;;;;;53.78;8.23;;;;;;;5.87;100.00;99263.16;4937007;29;20038;-77
2022/01/03 05:52:14;;;;;;;60.00;9.82;;;;;;;5.86;100.00;99256.91;4954372;28;20031;-77
2022/01/03 05:54:39;;;;;;;51.90;9.55;;;;;;;5.87;100.00;99245.03;4953024;28;20082;-77
2022/01/03 05:57:08;;;;;;;44.38;9.95;;;;;;;5.88;100.00;99251.25;4955029;28;20031;-77
2022/01/03 05:59:36;;;;;;;61.28;10.75;;;;;;;5.91;100.00;99258.78;4953076;28;20055;-76
2022/01/03 06:02:03;;;;;;;52.63;9.32;;;;;;;5.90;100.00;99263.41;4953644;28;20031;-77
2022/01/03 06:05:04;;;;;;;49.03;11.35;;;;;;;5.91;100.00;99261.50;4939299;29;20050;-76
2022/01/03 06:07:20;;;;;;;40.38;10.85;;;;;;;5.89;100.00;99259.09;4937282;29;20047;-77
2022/01/03 06:09:46;;;;;;;45.70;9.88;;;;;;;5.89;100.00;99250.97;4953254;28;20034;-78
2022/01/03 06:12:12;;;;;;;61.63;12.48;;;;;;;5.89;100.00;99250.13;4952796;28;20499;-78
2022/01/03 06:14:38;;;;;;;51.00;10.05;;;;;;;5.90;100.00;99254.47;4949937;28;20019;-78
2022/01/03 06:17:06;;;;;;;53.70;9.73;;;;;;;5.91;100.00;99247.97;4950731;28;20039;-78
2022/01/03 06:19:32;;;;;;;49.85;10.32;;;;;;;5.89;100.00;99234.75;4935830;28;20120;-78
2022/01/03 06:21:58;;;;;;;45.42;9.65;;;;;;;5.89;100.00;99234.75;4954854;28;20039;-78
2022/01/03 06:24:23;;;;;;;50.20;10.88;;;;;;;5.91;100.00;99247.97;4952830;28;20532;-78
2022/01/03 06:26:48;;;;;;;44.17;9.10;;;;;;;5.90;100.00;99230.94;4937519;29;20035;-77
2022/01/03 06:29:14;;;;;;;45.42;8.93;;;;;;;5.90;100.00;99224.72;4953808;28;20027;-77
2022/01/03 06:31:40;;;;;;;39.85;8.32;;;;;;;5.91;100.00;99223.63;4953715;28;20067;-77
2022/01/03 06:34:06;;;;;;;30.25;8.07;;;;;;;5.93;100.00;99218.75;4953565;28;20118;-78
2022/01/03 06:36:31;;;;;;;44.45;7.32;;;;;;;5.96;100.00;99218.22;4953822;28;20031;-77
2022/01/03 06:38:58;;;;;;;54.15;10.02;;;;;;;5.96;100.00;99208.19;4950681;28;20098;-77
2022/01/03 06:41:24;;;;;;;46.50;7.70;;;;;;;5.98;100.00;99213.34;4953499;28;20058;-77
2022/01/03 06:43:49;;;;;;;46.50;9.82;;;;;;;5.96;100.00;99205.50;4953051;28;20477;-76
2022/01/03 06:46:16;;;;;;;37.47;8.35;;;;;;;5.97;100.00;99209.00;4925079;29;20086;-77
2022/01/03 06:48:43;;;;;;;49.03;9.55;;;;;;;5.97;100.00;99203.59;4950823;28;20028;-77
2022/01/03 06:51:08;;;;;;;39.20;8.77;;;;;;;5.98;100.00;99216.84;4950310;28;20026;-77
2022/01/03 06:53:34;;;;;;;55.38;10.63;;;;;;;6.00;100.00;99219.25;4950112;28;20032;-77
2022/01/03 06:55:59;;;;;;;48.47;9.73;;;;;;;6.01;100.00;99218.19;4933549;29;20392;-77
2022/01/03 06:58:25;;;;;;;53.33;9.77;;;;;;;6.02;100.00;99219.78;4950880;28;20056;-77
2022/01/03 07:00:50;;;;;;;46.85;9.13;;;;;;;6.02;100.00;99221.69;4953867;28;20082;-77
2022/01/03 07:03:15;;;;;;;50.08;9.00;;;;;;;6.02;100.00;99214.38;4953330;28;20035;-77
2022/01/03 07:05:43;;;;;;;45.95;8.75;;;;;;;6.04;100.00;99220.31;4953211;28;20078;-77
2022/01/03 07:08:10;;;;;;;48.72;10.68;;;;;;;6.03;100.00;99216.00;4952353;28;20473;-77
2022/01/03 07:10:35;;;;;;;49.65;9.10;;;;;;;6.01;100.00;99210.06;4953194;28;20035;-77
2022/01/03 07:13:01;;;;;;;45.90;8.77;;;;;;;6.02;100.00;99216.28;4951429;28;20042;-77
2022/01/03 07:20:56;;;;;;;33.88;8.23;;;;;;;6.01;100.00;99220.88;4950696;28;20399;-77
2022/01/03 07:23:22;;;;;;;40.03;12.60;;;;;;;6.02;100.00;99222.50;4949868;28;20063;-77
2022/01/03 07:25:47;;;;;;;52.17;13.25;;;;;;;6.00;100.00;99225.50;4951107;28;20031;-77
2022/01/03 07:28:18;;;;;;;48.83;12.18;;;;;;;6.03;100.00;99213.31;4950674;28;20035;-77
2022/01/03 07:30:43;;;;;;;47.78;9.25;;;;;;;6.02;100.00;99222.50;4949910;28;20396;-77
2022/01/03 07:33:09;;;;;;;42.08;9.43;;;;;;;5.99;100.00;99206.84;4933583;28;20102;-77
2022/01/03 07:35:34;;;;;;;40.17;7.93;;;;;;;5.97;100.00;99212.53;4945614;28;20023;-77
2022/01/03 07:38:04;;;;;;;40.67;6.85;;;;;;;5.99;100.00;99209.53;4950868;28;20464;-77
2022/01/03 07:40:30;;;;;;;35.75;6.75;;;;;;;6.02;100.00;99210.88;4949516;28;20051;-77
2022/01/03 07:42:56;;;;;;;41.15;7.90;;;;;;;6.02;100.00;99219.78;4929006;29;20031;-77
2022/01/03 07:45:23;;;;;;;39.15;8.63;;;;;;;6.03;100.00;99207.91;4930162;28;20046;-77
2022/01/03 07:47:48;;;;;;;34.30;6.38;;;;;;;6.04;100.00;99209.50;4929664;29;20413;-76
2022/01/03 07:50:14;;;;;;;39.88;7.57;;;;;;;6.03;100.00;99205.19;4946008;28;20027;-77
2022/01/03 07:52:39;;;;;;;37.05;9.38;;;;;;;6.03;100.00;99207.06;4945118;29;20023;-77
2022/01/03 07:55:06;;;;;;;48.80;7.47;;;;;;;6.03;100.00;99207.91;4948027;28;20027;-77
2022/01/03 07:57:31;;;;;;;38.00;7.32;;;;;;;6.00;100.00;99209.28;4932881;29;20033;-77
2022/01/03 07:59:57;;;;;;;35.63;6.30;;;;;;;5.99;100.00;99206.84;4942871;28;20079;-76
2022/01/03 08:02:22;;;;;;;30.48;7.93;;;;;;;5.99;100.00;99206.84;4949304;28;20031;-76
2022/01/03 08:04:49;;;;;;;43.33;7.50;;;;;;;5.99;100.00;99206.84;4933855;29;20388;-77
2022/01/03 08:07:14;;;;;;;35.47;5.97;;;;;;;5.98;100.00;99206.03;4933060;29;20057;-76
2022/01/03 08:09:40;;;;;;;35.08;7.22;;;;;;;6.01;100.00;99204.66;4951121;28;20477;-76
2022/01/03 08:12:06;;;;;;;35.50;6.22;;;;;;;6.07;100.00;99214.34;4938426;28;20184;-77
2022/01/03 08:14:31;;;;;;;36.97;7.07;;;;;;;6.11;100.00;99215.41;4948815;28;20042;-76
2022/01/03 08:16:57;;;;;;;34.25;5.97;;;;;;;6.12;100.00;99208.09;4935476;28;20027;-75
2022/01/03 08:19:22;;;;;;;27.60;5.25;;;;;;;6.09;100.00;99212.16;4942792;28;20043;-76
2022/01/03 08:21:48;;;;;;;29.90;6.20;;;;;;;6.07;100.00;99210.84;4953177;28;20050;-75
2022/01/03 08:24:13;;;;;;;32.78;5.70;;;;;;;6.05;100.00;99216.53;4957383;28;20023;-75
2022/01/03 08:26:39;;;;;;;33.28;6.78;;;;;;;6.07;100.00;99214.34;4958099;28;20043;-75
2022/01/03 08:29:05;;;;;;;34.20;6.65;;;;;;;6.10;100.00;99213.78;4955991;28;20512;-75
2022/01/03 08:31:31;;;;;;;32.42;5.25;;;;;;;6.12;100.00;99205.38;4959645;28;20035;-75
2022/01/03 08:33:56;;;;;;;35.45;7.25;;;;;;;6.13;100.00;99204.28;4942306;29;20392;-75
2022/01/03 08:36:22;;;;;;;34.72;6.40;;;;;;;6.14;100.00;99198.59;4905451;28;20027;-75
2022/01/03 08:38:47;;;;;;;36.95;6.97;;;;;;;6.17;100.00;99195.34;4944452;28;20026;-80
2022/01/03 08:41:12;;;;;;;26.63;6.03;;;;;;;6.22;100.00;99195.28;4935951;29;20094;-75
2022/01/03 08:43:39;;;;;;;33.65;6.25;;;;;;;6.21;100.00;99187.44;4938664;29;20408;-76
2022/01/03 08:46:04;;;;;;;22.20;5.13;;;;;;;6.21;100.00;99198.28;4939817;28;20055;-76
2022/01/03 08:48:30;;;;;;;30.77;5.45;;;;;;;6.22;100.00;99202.59;4958129;28;20035;-75
2022/01/03 08:50:55;;;;;;;30.25;5.90;;;;;;;6.19;100.00;99190.44;4965746;28;20486;-75
2022/01/03 08:53:26;;;;;;;33.30;6.32;;;;;;;6.19;100.00;99206.69;4939061;28;20031;-75
2022/01/03 08:55:52;;;;;;;30.55;5.85;;;;;;;6.18;100.00;99193.44;4954229;28;20082;-75
2022/01/03 08:58:18;;;;;;;25.70;5.57;;;;;;;6.19;100.00;99187.75;4953994;28;20079;-75
2022/01/03 09:00:44;;;;;;;29.15;5.32;;;;;;;6.22;100.00;99183.66;4953954;28;20028;-75
2022/01/03 09:03:11;;;;;;;38.22;5.97;;;;;;;6.25;100.00;99184.97;4953643;28;20047;-75
2022/01/03 09:05:37;;;;;;;34.10;7.05;;;;;;;6.26;100.00;99179.28;4953730;28;20026;-75
2022/01/03 09:08:03;;;;;;;24.17;4.35;;;;;;;6.27;100.00;99188.22;4938545;29;20030;-76
2022/01/03 09:10:28;;;;;;;27.77;5.63;;;;;;;6.26;100.00;99189.31;4937742;29;20071;-75
2022/01/03 09:12:53;;;;;;;43.40;7.30;;;;;;;6.23;100.00;99186.06;4941752;28;20031;-75
2022/01/03 09:15:19;;;;;;;29.90;5.93;;;;;;;6.22;100.00;99179.06;4935169;28;20396;-75
2022/01/03 09:17:44;;;;;;;35.17;6.03;;;;;;;6.21;100.00;99177.41;4950183;28;20141;-75
2022/01/03 09:20:10;;;;;;;30.50;6.10;;;;;;;6.21;100.00;99171.22;4937856;29;20487;-76
2022/01/03 09:22:41;;;;;;;33.45;6.22;;;;;;;6.20;100.00;99166.91;4929206;29;20061;-75
2022/01/03 09:30:16;;;;;;;31.63;5.40;;;;;;;6.18;100.00;99178.00;4939023;28;20057;-75
2022/01/03 09:32:44;;;;;;;34.88;6.72;;;;;;;6.17;100.00;99168.28;4953976;28;20035;-76
2022/01/03 09:35:09;;;;;;;42.15;5.68;;;;;;;6.16;100.00;99169.34;4924382;28;20019;-76
2022/01/03 09:37:35;;;;;;;36.13;6.15;;;;;;;6.16;100.00;99163.94;4935570;29;20042;-76
2022/01/03 09:40:01;;;;;;;38.17;5.88;;;;;;;6.15;100.00;99165.03;4940225;28;20082;-75
2022/01/03 09:42:27;;;;;;;31.08;5.70;;;;;;;6.16;100.00;99163.13;4938984;29;20037;-76
2022/01/03 09:44:53;;;;;;;27.73;4.63;;;;;;;6.17;100.00;99172.88;4939965;28;20031;-76
2022/01/03 09:47:19;;;;;;;27.52;6.53;;;;;;;6.18;100.00;99161.75;4920704;28;20054;-75
2022/01/03 09:49:45;;;;;;;31.55;7.35;;;;;;;6.20;100.00;99164.19;4940105;29;20416;-76
2022/01/03 09:52:11;;;;;;;33.95;5.20;;;;;;;6.20;100.00;99165.00;4919897;28;20035;-76
2022/01/03 09:54:36;;;;;;;34.53;5.63;;;;;;;6.20;100.00;99165.00;4934626;28;20023;-76
2022/01/03 09:57:03;;;;;;;27.48;5.38;;;;;;;6.21;100.00;99161.19;4937155;28;20034;-76
2022/01/03 09:59:28;;;;;;;36.13;6.00;;;;;;;6.21;100.00;99171.22;4943020;28;20043;-80
2022/01/03 10:01:55;;;;;;;35.97;5.15;;;;;;;6.21;100.00;99169.31;4952618;28;20046;-76
2022/01/03 10:04:21;;;;;;;30.63;5.80;;;;;;;6.22;100.00;99159.31;4959897;28;20031;-76
2022/01/03 10:06:46;;;;;;;35.50;6.13;;;;;;;6.22;100.00;99154.69;4952836;28;20326;-76
2022/01/03 10:09:12;;;;;;;29.95;5.60;;;;;;;6.23;100.00;99148.19;4928089;28;20035;-75
2022/01/03 10:11:37;;;;;;;43.75;8.05;;;;;;;6.25;100.00;99138.97;4936684;29;20027;-76
2022/01/03 10:14:02;;;;;;;33.92;6.97;;;;;;;6.23;100.00;99140.06;4960475;28;20038;-76
2022/01/03 10:16:30;;;;;;;31.58;6.07;;;;;;;6.25;100.00;99144.38;4959313;28;20033;-76
2022/01/03 10:18:55;;;;;;;39.53;7.45;;;;;;;6.25;100.00;99150.63;4936106;29;20493;-77
2022/01/03 10:21:36;;;;;;;31.90;6.68;;;;;;;6.25;100.00;99138.97;4950318;28;20035;-77
2022/01/03 10:24:02;;;;;;;27.52;5.38;;;;;;;6.26;100.00;99127.06;4935252;28;20028;-77
2022/01/03 10:26:27;;;;;;;37.45;6.95;;;;;;;6.27;100.00;99131.38;4922279;28;20038;-77
2022/01/03 10:29:15;;;;;;;36.55;6.90;;;;;;;6.26;100.00;99135.19;4929142;28;20037;-76
2022/01/03 10:31:42;;;;;;;35.00;5.78;;;;;;;6.26;100.00;99133.28;4951850;28;20027;-76
2022/01/03 10:34:09;;;;;;;35.53;7.05;;;;;;;6.28;100.00;99117.56;4938195;29;20027;-76
2022/01/03 10:36:35;;;;;;;33.63;6.72;;;;;;;6.30;100.00;99126.22;4954801;28;20023;-77
2022/01/03 10:39:21;;;;;;;37.28;8.07;;;;;;;6.31;100.00;99121.59;4940273;29;20082;-76
2022/01/03 10:41:50;;;;;;;42.45;7.93;;;;;;;6.33;100.00;99108.56;4961326;28;20041;-77
2022/01/03 10:44:36;;;;;;;39.10;7.43;;;;;;;6.29;100.00;99104.84;4952900;28;20027;-77
2022/01/03 10:47:03;;;;;;;41.15;7.70;;;;;;;6.26;100.00;99103.50;4949570;28;20041;-76
2022/01/03 10:49:30;;;;;;;35.85;7.25;;;;;;;6.27;100.00;99093.50;4953143;28;20106;-76
2022/01/03 10:52:16;;;;;;;38.88;7.18;;;;;;;6.27;100.00;99098.91;4962765;28;20039;-77
2022/01/03 10:54:42;;;;;;;33.17;7.50;;;;;;;6.28;100.00;99100.53;4945316;28;20131;-76
2022/01/03 10:57:08;;;;;;;33.00;7.05;;;;;;;6.29;100.00;99091.31;4950730;28;20050;-76
2022/01/03 10:59:35;;;;;;;40.20;6.90;;;;;;;6.30;100.00;99092.91;4953255;28;20057;-76
2022/01/03 11:02:03;;;;;;;31.48;5.43;;;;;;;6.31;100.00;99094.56;4955063;28;20026;-76
2022/01/03 11:04:38;;;;;;;38.53;7.03;;;;;;;6.32;100.00;99102.38;4956333;28;20498;-76
2022/01/03 11:13:03;;;;;;;51.45;8.25;;;;;;;6.41;100.00;99087.13;4956960;28;20038;-76
2022/01/03 11:15:31;;;;;;;35.60;9.57;;;;;;;6.45;100.00;99090.84;4959325;28;20560;-76
2022/01/03 11:18:26;;;;;;;37.85;6.78;;;;;;;6.47;100.00;99090.56;4953799;28;20042;-76
2022/01/03 11:21:14;;;;;;;43.88;7.57;;;;;;;6.52;100.00;99087.00;4934118;29;20020;-77
2022/01/03 11:23:41;;;;;;;45.13;6.95;;;;;;;6.59;100.00;99085.53;4952654;28;20113;-76
2022/01/03 11:26:15;;;;;;;43.38;7.43;;;;;;;6.66;100.00;99077.09;4955615;28;20099;-77
2022/01/03 11:28:40;;;;;;;31.85;8.70;;;;;;;6.67;100.00;99087.63;4934789;29;20428;-76
2022/01/03 11:31:07;;;;;;;58.83;8.95;;;;;;;6.65;100.00;99080.88;4942894;28;20027;-76
2022/01/03 11:33:34;;;;;;;29.55;6.32;;;;;;;6.64;100.00;99077.38;4937378;28;20419;-76
2022/01/03 11:35:59;;;;;;;33.92;7.93;;;;;;;6.66;100.00;99086.00;4962937;28;20042;-79
2022/01/03 11:38:26;;;;;;;39.95;9.73;;;;;;;6.69;100.00;99073.00;4938042;28;20086;-78
2022/01/03 11:40:55;;;;;;;35.58;7.20;;;;;;;6.73;100.00;99072.09;4928036;28;20081;-78
2022/01/03 11:43:20;;;;;;;49.63;7.72;;;;;;;6.73;100.00;99063.97;4922497;28;20106;-78